Time;durP1;ratioP1;P1;durP2;ratioP2;P2;SDS_P1;SDS_P2;PMS_P1;PMS_P2;Temp;Humidity;BMP_temperature;BMP_pressure;BME280_temperature;BME280_humidity;BME280_pressure;Samples;Min_cycle;Max_cycle;Signal;HPM_P1;HPM_P2
2022/10/10 00:02:09;;;;;;;5.10;1.23;;;11.00;67.60;;;;;;5011990;28;20034;-67
2022/10/10 00:04:35;;;;;;;2.10;1.20;;;11.00;67.70;;;;;;4992157;28;20030;-70
2022/10/10 00:07:02;;;;;;;1.20;0.85;;;11.00;67.70;;;;;;5009594;28;20615;-71
2022/10/10 00:09:27;;;;;;;0.88;0.68;;;11.00;67.70;;;;;;5004468;28;20489;-71
2022/10/10 00:11:56;;;;;;;0.93;0.90;;;11.00;67.80;;;;;;4999534;28;20026;-70
2022/10/10 00:14:21;;;;;;;1.20;1.00;;;10.90;67.80;;;;;;5010176;28;20163;-70
2022/10/10 00:16:47;;;;;;;1.77;0.98;;;10.90;67.90;;;;;;5010445;28;20037;-70
2022/10/10 00:19:13;;;;;;;2.40;1.13;;;10.90;67.90;;;;;;5011514;28;20022;-71
2022/10/10 00:21:38;;;;;;;2.38;1.08;;;10.90;67.90;;;;;;5009206;28;20504;-70
2022/10/10 00:24:04;;;;;;;0.82;0.80;;;10.80;67.90;;;;;;5009996;28;20033;-71
2022/10/10 00:26:30;;;;;;;2.05;1.38;;;10.80;67.80;;;;;;5009003;28;20080;-68
2022/10/10 00:28:56;;;;;;;2.55;1.15;;;10.80;67.90;;;;;;5008748;28;20108;-67
2022/10/10 00:31:21;;;;;;;1.55;1.00;;;10.80;68.10;;;;;;5011409;28;20037;-68
2022/10/10 00:33:47;;;;;;;1.10;1.00;;;10.70;68.10;;;;;;4992043;28;20381;-68
2022/10/10 00:36:13;;;;;;;0.80;0.80;;;10.70;68.20;;;;;;5008899;28;20033;-68
2022/10/10 00:38:39;;;;;;;2.97;1.00;;;10.70;68.30;;;;;;5009840;28;20432;-68
2022/10/10 00:41:05;;;;;;;1.52;0.90;;;10.70;68.20;;;;;;4991008;28;20026;-68
2022/10/10 00:43:32;;;;;;;0.95;0.93;;;10.70;68.30;;;;;;5009357;28;20381;-69
2022/10/10 00:45:58;;;;;;;1.50;1.15;;;10.70;68.40;;;;;;5009867;28;20361;-67
2022/10/10 00:48:28;;;;;;;1.42;0.85;;;10.70;68.60;;;;;;4991771;28;20022;-67
2022/10/10 00:51:08;;;;;;;1.75;0.98;;;10.60;68.60;;;;;;4980719;28;20077;-67
2022/10/10 00:53:48;;;;;;;2.55;1.58;;;10.60;68.60;;;;;;5001023;28;20105;-70
2022/10/10 00:56:16;;;;;;;1.20;1.08;;;10.60;68.80;;;;;;5010409;28;20018;-69
2022/10/10 00:58:46;;;;;;;1.58;0.90;;;10.50;68.80;;;;;;5012876;28;20133;-70
2022/10/10 01:01:12;;;;;;;2.65;1.20;;;10.50;68.80;;;;;;5009606;28;20037;-67
2022/10/10 01:03:38;;;;;;;1.05;0.88;;;10.50;68.80;;;;;;5007158;28;20535;-67
2022/10/10 01:06:04;;;;;;;0.65;0.65;;;10.50;68.70;;;;;;4991425;28;20125;-67
2022/10/10 01:08:30;;;;;;;1.30;1.02;;;10.50;68.80;;;;;;5008958;28;20069;-67
2022/10/10 01:11:22;;;;;;;1.10;0.85;;;10.50;69.00;;;;;;5008271;28;20025;-67
2022/10/10 01:14:00;;;;;;;2.20;0.95;;;10.50;69.00;;;;;;4963699;28;20038;-70
2022/10/10 01:16:40;;;;;;;2.55;1.13;;;10.40;69.10;;;;;;5006709;28;20045;-70
2022/10/10 01:19:34;;;;;;;1.55;1.17;;;10.40;69.20;;;;;;4989328;28;20403;-71
2022/10/10 01:22:36;;;;;;;1.13;0.88;;;10.40;69.30;;;;;;5004744;28;20105;-67
2022/10/10 01:25:20;;;;;;;2.03;1.52;;;10.40;69.20;;;;;;4990578;28;20092;-67
2022/10/10 01:28:24;;;;;;;2.72;1.38;;;10.30;69.50;;;;;;5001761;28;20046;-67
2022/10/10 01:30:50;;;;;;;0.82;0.65;;;10.30;69.30;;;;;;4991314;28;20477;-67
2022/10/10 01:33:27;;;;;;;1.88;1.25;;;10.30;69.50;;;;;;5006193;28;20022;-67
2022/10/10 01:36:02;;;;;;;2.10;1.33;;;10.30;69.40;;;;;;5009480;28;20026;-67
2022/10/10 01:38:40;;;;;;;1.02;1.00;;;10.30;69.60;;;;;;5010030;28;20032;-67
2022/10/10 01:41:20;;;;;;;2.40;1.30;;;10.30;69.60;;;;;;4992554;28;20034;-67
2022/10/10 01:43:56;;;;;;;3.47;1.38;;;10.30;69.50;;;;;;5011973;28;20137;-67
2022/10/10 01:46:22;;;;;;;1.92;0.90;;;10.20;69.60;;;;;;5004703;28;20088;-69
2022/10/10 01:48:51;;;;;;;1.20;0.80;;;10.20;69.70;;;;;;5014375;28;20030;-67
2022/10/10 01:51:28;;;;;;;1.48;0.90;;;10.20;69.60;;;;;;5012849;28;20521;-70
2022/10/10 01:54:15;;;;;;;5.05;1.67;;;10.20;69.50;;;;;;5012819;28;20088;-70
2022/10/10 01:56:58;;;;;;;1.90;0.90;;;10.20;69.60;;;;;;5011532;28;20034;-70
2022/10/10 01:59:53;;;;;;;1.67;0.90;;;10.20;69.90;;;;;;4995947;28;20030;-71
2022/10/10 02:02:47;;;;;;;0.98;0.98;;;10.20;69.80;;;;;;5012361;28;20092;-70
2022/10/10 02:05:27;;;;;;;1.02;0.93;;;10.20;70.00;;;;;;5012764;28;20026;-70
2022/10/10 02:08:12;;;;;;;0.90;0.80;;;10.10;70.10;;;;;;5010820;28;20393;-67
2022/10/10 02:10:45;;;;;;;1.92;1.27;;;10.10;70.20;;;;;;5004913;28;20026;-69
2022/10/10 02:13:11;;;;;;;2.80;0.82;;;10.10;70.30;;;;;;4996893;28;20032;-68
2022/10/10 02:15:43;;;;;;;0.88;0.85;;;10.10;70.30;;;;;;5013789;28;20045;-70
2022/10/10 02:18:12;;;;;;;1.85;1.27;;;10.00;70.30;;;;;;5011077;28;20126;-67
2022/10/10 02:20:40;;;;;;;1.52;1.20;;;10.00;70.40;;;;;;5024197;28;20112;-67
2022/10/10 02:23:08;;;;;;;1.27;1.02;;;10.00;70.50;;;;;;5017908;28;20064;-70
2022/10/10 02:25:38;;;;;;;1.38;0.80;;;10.00;70.60;;;;;;5015849;28;20172;-67
2022/10/10 02:28:49;;;;;;;3.50;1.50;;;10.00;70.60;;;;;;5011245;28;20026;-67
2022/10/10 02:31:23;;;;;;;2.38;1.25;;;10.00;70.60;;;;;;4931932;29;20070;-67
2022/10/10 02:33:58;;;;;;;1.77;1.15;;;9.90;70.90;;;;;;4931893;29;20043;-67
2022/10/10 02:36:26;;;;;;;1.48;0.90;;;9.90;70.90;;;;;;4981902;28;20034;-67
2022/10/10 02:38:54;;;;;;;1.23;1.10;;;9.90;70.90;;;;;;5010708;28;20030;-67
2022/10/10 02:41:21;;;;;;;3.05;1.30;;;9.90;70.80;;;;;;4994449;28;20057;-69
2022/10/10 02:43:49;;;;;;;1.73;1.05;;;9.90;70.80;;;;;;5011965;28;20076;-69
2022/10/10 02:46:16;;;;;;;2.35;1.30;;;9.80;70.80;;;;;;5012748;28;20018;-70
2022/10/10 02:48:42;;;;;;;1.35;1.08;;;9.80;70.80;;;;;;5010031;28;20058;-67
2022/10/10 02:51:08;;;;;;;1.77;0.80;;;9.90;71.00;;;;;;4994173;28;20061;-67
2022/10/10 02:53:36;;;;;;;1.38;1.05;;;9.80;71.00;;;;;;5011329;28;20576;-69
2022/10/10 02:56:03;;;;;;;1.15;0.85;;;9.80;71.10;;;;;;5011422;28;20037;-70
2022/10/10 02:58:28;;;;;;;1.17;0.77;;;9.80;71.10;;;;;;5010456;28;20041;-71
2022/10/10 03:00:54;;;;;;;1.33;0.90;;;9.80;71.10;;;;;;5007938;28;20435;-70
2022/10/10 03:03:19;;;;;;;1.15;1.05;;;9.80;71.20;;;;;;4977937;28;20030;-70
2022/10/10 03:05:45;;;;;;;0.90;0.75;;;9.70;71.10;;;;;;5013328;28;20026;-67
2022/10/10 03:08:11;;;;;;;1.63;1.20;;;9.80;71.30;;;;;;5012156;28;20105;-67
2022/10/10 03:10:36;;;;;;;1.98;1.30;;;9.80;71.40;;;;;;5010554;28;20045;-67
2022/10/10 03:13:02;;;;;;;1.60;1.10;;;9.70;71.40;;;;;;5017370;28;20444;-70
2022/10/10 03:15:28;;;;;;;0.60;0.60;;;9.70;71.50;;;;;;5011263;28;20030;-67
2022/10/10 03:17:53;;;;;;;1.75;0.98;;;9.70;71.60;;;;;;5001893;28;20144;-67
2022/10/10 03:20:19;;;;;;;2.10;0.90;;;9.70;71.60;;;;;;4976175;28;20084;-67
2022/10/10 03:22:44;;;;;;;1.00;0.90;;;9.70;71.80;;;;;;4992121;28;20120;-67
2022/10/10 03:25:10;;;;;;;1.88;1.05;;;9.70;71.80;;;;;;4992778;28;20030;-67
2022/10/10 03:27:36;;;;;;;1.23;0.85;;;9.60;71.80;;;;;;5019958;28;20067;-67
2022/10/10 03:30:02;;;;;;;0.90;0.90;;;9.60;71.80;;;;;;4992594;28;20125;-67
2022/10/10 03:32:28;;;;;;;2.17;0.82;;;9.60;71.90;;;;;;5011250;28;20037;-67
2022/10/10 03:34:54;;;;;;;1.25;0.82;;;9.60;71.90;;;;;;5008565;28;20030;-70
2022/10/10 03:37:19;;;;;;;1.80;1.17;;;9.60;71.90;;;;;;5013231;28;20042;-70
2022/10/10 03:39:45;;;;;;;1.25;1.15;;;9.60;72.00;;;;;;4999950;28;20093;-70
2022/10/10 03:42:11;;;;;;;1.02;0.93;;;9.60;72.00;;;;;;4993466;28;20052;-70
2022/10/10 03:44:37;;;;;;;1.15;1.05;;;9.60;72.00;;;;;;4987950;28;20056;-71
2022/10/10 03:47:03;;;;;;;4.03;1.40;;;9.60;72.10;;;;;;5007758;28;20034;-67
2022/10/10 03:49:28;;;;;;;1.70;1.08;;;9.50;72.20;;;;;;4977574;28;20116;-70
2022/10/10 03:51:54;;;;;;;0.73;0.70;;;9.50;72.20;;;;;;5009643;28;20037;-67
2022/10/10 03:54:20;;;;;;;3.13;1.17;;;9.50;72.10;;;;;;4993967;28;20030;-67
2022/10/10 03:56:46;;;;;;;0.80;0.80;;;9.50;72.20;;;;;;5011203;28;20052;-67
2022/10/10 03:59:11;;;;;;;1.08;0.90;;;9.50;72.20;;;;;;4969304;28;20053;-67
2022/10/10 04:01:57;;;;;;;1.77;1.00;;;9.50;72.20;;;;;;4988346;28;20081;-67
2022/10/10 04:04:23;;;;;;;1.65;1.20;;;9.50;72.10;;;;;;4988152;28;20057;-68
2022/10/10 04:06:49;;;;;;;1.65;1.00;;;9.50;72.20;;;;;;5009200;28;20021;-66
2022/10/10 04:09:14;;;;;;;1.20;1.10;;;9.50;72.30;;;;;;4998364;28;20087;-66
2022/10/10 04:11:40;;;;;;;3.45;1.35;;;9.50;72.30;;;;;;5010243;28;20033;-66
2022/10/10 04:14:06;;;;;;;6.28;1.45;;;9.40;72.30;;;;;;5009144;28;20125;-66
2022/10/10 04:16:31;;;;;;;5.68;1.10;;;9.40;72.40;;;;;;5008582;28;20042;-67
2022/10/10 04:18:57;;;;;;;1.20;1.10;;;9.40;72.60;;;;;;4987545;28;20058;-67
2022/10/10 04:21:22;;;;;;;2.38;1.33;;;9.30;72.60;;;;;;4998077;28;20031;-67
2022/10/10 04:23:48;;;;;;;1.73;1.15;;;9.30;72.60;;;;;;4982720;28;20517;-67
2022/10/10 04:26:14;;;;;;;1.77;1.38;;;9.30;72.70;;;;;;4991238;28;20022;-69
2022/10/10 04:28:39;;;;;;;1.65;1.30;;;9.30;72.80;;;;;;4982387;28;20026;-70
2022/10/10 04:31:05;;;;;;;1.48;1.30;;;9.20;72.70;;;;;;4976863;28;20491;-70
2022/10/10 04:33:31;;;;;;;1.88;1.30;;;9.30;72.80;;;;;;4996514;28;20112;-70
2022/10/10 04:35:57;;;;;;;1.02;0.93;;;9.30;72.80;;;;;;4977525;28;20046;-70
2022/10/10 04:38:22;;;;;;;1.52;0.90;;;9.30;72.80;;;;;;4972596;28;20041;-70
2022/10/10 04:40:49;;;;;;;3.38;1.33;;;9.30;72.80;;;;;;4988293;28;20043;-70
2022/10/10 04:43:16;;;;;;;1.75;1.15;;;9.20;72.70;;;;;;4988282;28;20109;-70
2022/10/10 04:45:41;;;;;;;2.00;1.02;;;9.20;72.90;;;;;;4990389;28;20033;-67
2022/10/10 04:48:07;;;;;;;1.92;1.45;;;9.20;72.90;;;;;;4977424;28;20031;-67
2022/10/10 04:50:33;;;;;;;1.45;1.20;;;9.20;72.90;;;;;;4987822;28;20061;-68
2022/10/10 04:52:59;;;;;;;2.53;1.20;;;9.20;72.90;;;;;;4981238;28;20030;-69
2022/10/10 04:55:24;;;;;;;2.60;1.30;;;9.20;72.90;;;;;;4990026;28;20045;-70
2022/10/10 04:57:50;;;;;;;1.25;0.90;;;9.20;72.80;;;;;;4982574;28;20030;-70
2022/10/10 05:00:16;;;;;;;1.55;1.02;;;9.20;72.80;;;;;;4986702;28;20042;-70
2022/10/10 05:02:41;;;;;;;1.63;1.08;;;9.20;72.90;;;;;;4985599;28;20027;-69
2022/10/10 05:05:08;;;;;;;1.67;0.73;;;9.20;72.80;;;;;;4976869;28;20502;-69
2022/10/10 05:07:33;;;;;;;2.05;1.27;;;9.10;72.80;;;;;;4974098;28;20026;-69
2022/10/10 05:09:59;;;;;;;1.83;1.48;;;9.10;72.80;;;;;;5002188;28;20033;-66
2022/10/10 05:12:25;;;;;;;1.35;0.80;;;9.10;72.80;;;;;;4988358;28;20034;-67
2022/10/10 05:14:50;;;;;;;4.68;1.33;;;9.10;72.90;;;;;;5000481;28;20048;-67
2022/10/10 05:17:16;;;;;;;1.38;0.90;;;9.10;72.90;;;;;;4992357;28;20061;-68
2022/10/10 05:19:42;;;;;;;1.10;1.00;;;9.00;72.90;;;;;;5006710;28;20026;-68
2022/10/10 05:22:07;;;;;;;2.10;1.20;;;9.00;72.90;;;;;;5008995;28;20439;-68
2022/10/10 05:24:33;;;;;;;1.65;1.30;;;9.00;72.90;;;;;;5009070;28;20017;-68
2022/10/10 05:26:59;;;;;;;2.28;1.52;;;9.00;73.00;;;;;;5008993;28;20120;-68
2022/10/10 05:29:25;;;;;;;1.60;1.27;;;8.90;72.90;;;;;;5005531;28;20034;-69
2022/10/10 05:31:50;;;;;;;2.05;1.35;;;9.00;73.00;;;;;;4990460;28;20037;-71
2022/10/10 05:34:16;;;;;;;2.20;1.65;;;8.90;72.90;;;;;;4991519;28;20022;-70
2022/10/10 05:36:42;;;;;;;1.17;1.08;;;9.00;73.00;;;;;;5008716;28;20072;-71
2022/10/10 05:39:08;;;;;;;1.48;1.38;;;9.00;73.00;;;;;;4991389;28;20030;-71
2022/10/10 05:41:34;;;;;;;1.13;0.90;;;8.90;72.90;;;;;;5008057;28;20029;-70
2022/10/10 05:43:59;;;;;;;1.92;1.40;;;8.90;73.00;;;;;;4991444;28;20028;-68
2022/10/10 05:46:26;;;;;;;2.40;1.15;;;8.90;72.90;;;;;;4975436;28;20026;-66
2022/10/10 05:48:52;;;;;;;1.42;1.15;;;8.90;72.90;;;;;;4990221;28;20418;-66
2022/10/10 05:51:19;;;;;;;1.20;1.02;;;8.90;73.00;;;;;;5007620;28;20030;-69
2022/10/10 05:53:46;;;;;;;0.70;0.70;;;8.90;73.00;;;;;;5008948;28;20488;-69
2022/10/10 05:56:14;;;;;;;1.95;1.15;;;8.90;73.00;;;;;;5013239;28;20028;-69
2022/10/10 05:58:39;;;;;;;3.45;1.80;;;8.90;73.10;;;;;;5001098;28;20064;-69
2022/10/10 06:01:06;;;;;;;3.35;1.10;;;8.90;73.00;;;;;;4978719;28;20074;-69
2022/10/10 06:03:32;;;;;;;1.30;1.20;;;8.90;73.00;;;;;;4999426;28;20442;-67
2022/10/10 06:05:58;;;;;;;1.80;1.20;;;8.80;73.00;;;;;;5003517;28;20026;-66
2022/10/10 06:08:24;;;;;;;2.72;1.50;;;8.80;73.10;;;;;;5000450;28;20485;-66
2022/10/10 06:10:51;;;;;;;2.15;1.63;;;8.80;73.80;;;;;;5002873;28;20026;-66
2022/10/10 06:13:17;;;;;;;2.70;1.25;;;8.80;73.40;;;;;;5008797;28;20075;-66
2022/10/10 06:15:43;;;;;;;1.10;0.98;;;8.80;73.40;;;;;;5012913;28;20029;-67
2022/10/10 06:18:09;;;;;;;1.98;1.40;;;8.80;73.40;;;;;;5007392;28;20045;-69
2022/10/10 06:20:40;;;;;;;1.60;1.50;;;8.80;73.40;;;;;;5011376;28;20032;-67
2022/10/10 06:23:07;;;;;;;1.75;1.50;;;8.90;73.50;;;;;;5006374;28;20032;-67
2022/10/10 06:25:34;;;;;;;1.73;1.48;;;8.90;73.60;;;;;;5012154;28;20022;-66
2022/10/10 06:28:00;;;;;;;1.50;1.00;;;8.90;73.50;;;;;;5006190;28;20032;-67
2022/10/10 06:30:26;;;;;;;3.92;1.52;;;8.90;73.60;;;;;;5010353;28;20034;-69
2022/10/10 06:32:52;;;;;;;2.38;1.20;;;8.90;73.70;;;;;;5012978;28;20033;-69
2022/10/10 06:35:18;;;;;;;1.50;1.40;;;8.90;73.60;;;;;;5010184;28;20561;-69
2022/10/10 06:37:43;;;;;;;1.83;1.60;;;8.90;73.50;;;;;;4993568;28;20125;-68
2022/10/10 06:40:09;;;;;;;2.55;1.40;;;9.00;73.80;;;;;;5008238;28;20143;-67
2022/10/10 06:42:35;;;;;;;2.92;1.83;;;9.00;73.60;;;;;;5012229;28;20034;-68
2022/10/10 06:45:00;;;;;;;2.35;1.00;;;9.10;73.80;;;;;;5014626;28;20529;-67
2022/10/10 06:47:27;;;;;;;4.70;2.38;;;9.10;73.80;;;;;;5010431;28;20034;-67
2022/10/10 06:49:52;;;;;;;6.47;2.90;;;9.10;74.00;;;;;;5010972;28;20104;-67
2022/10/10 06:52:18;;;;;;;2.30;2.10;;;9.20;74.00;;;;;;5010072;28;20113;-69
2022/10/10 06:54:44;;;;;;;2.83;2.53;;;9.20;73.90;;;;;;5012408;28;20026;-68
2022/10/10 06:57:10;;;;;;;4.57;3.67;;;9.30;74.00;;;;;;5015080;28;20478;-68
2022/10/10 06:59:35;;;;;;;4.78;3.83;;;9.40;74.00;;;;;;5011271;28;20101;-68
2022/10/10 07:02:01;;;;;;;5.55;4.07;;;9.40;74.00;;;;;;4998687;28;20545;-68
2022/10/10 07:04:27;;;;;;;7.63;3.63;;;9.50;74.20;;;;;;5012753;28;20038;-68
2022/10/10 07:06:52;;;;;;;3.72;2.53;;;9.50;74.20;;;;;;5010582;28;20022;-68
2022/10/10 07:09:19;;;;;;;2.45;2.13;;;9.60;74.20;;;;;;5011609;28;20022;-68
2022/10/10 07:11:45;;;;;;;4.28;2.65;;;9.70;74.20;;;;;;4994062;28;20485;-69
2022/10/10 07:14:11;;;;;;;4.07;2.10;;;9.70;74.10;;;;;;5014250;28;20248;-68
2022/10/10 07:16:38;;;;;;;2.65;2.40;;;9.80;74.40;;;;;;4997280;28;20038;-68
2022/10/10 07:19:04;;;;;;;2.53;1.67;;;9.90;74.50;;;;;;5004011;28;20029;-68
2022/10/10 07:21:29;;;;;;;3.28;2.10;;;10.00;74.50;;;;;;5008952;28;20120;-69
2022/10/10 07:23:55;;;;;;;4.10;1.83;;;10.00;74.60;;;;;;4974379;28;20024;-68
2022/10/10 07:26:21;;;;;;;1.92;1.63;;;10.10;74.70;;;;;;5015704;28;20026;-69
2022/10/10 07:28:48;;;;;;;6.53;2.03;;;10.20;74.70;;;;;;5010834;28;20037;-69
2022/10/10 07:31:14;;;;;;;2.88;1.90;;;10.30;74.80;;;;;;5009206;28;20040;-69
2022/10/10 07:33:46;;;;;;;3.25;1.73;;;10.40;75.10;;;;;;5011257;28;20068;-69
2022/10/10 07:36:13;;;;;;;1.48;1.27;;;10.50;75.10;;;;;;5010560;28;20030;-70
2022/10/10 07:38:39;;;;;;;3.78;1.92;;;10.50;75.00;;;;;;5008320;28;20145;-68
2022/10/10 07:41:11;;;;;;;2.53;1.75;;;10.70;75.00;;;;;;4992861;28;20048;-68
2022/10/10 07:43:37;;;;;;;7.00;2.38;;;10.80;75.20;;;;;;5011168;28;20023;-69
2022/10/10 07:46:04;;;;;;;3.65;2.80;;;10.80;75.50;;;;;;5011271;28;20014;-69
2022/10/10 07:48:31;;;;;;;5.05;2.38;;;10.90;75.70;;;;;;5010523;28;20084;-69
2022/10/10 07:50:57;;;;;;;3.50;2.42;;;11.00;75.40;;;;;;5011506;28;20033;-68
2022/10/10 07:53:23;;;;;;;2.65;2.20;;;11.10;75.30;;;;;;5020250;28;20029;-68
2022/10/10 07:55:49;;;;;;;3.08;1.67;;;11.30;75.20;;;;;;5018689;28;20504;-68
2022/10/10 07:58:14;;;;;;;4.50;1.75;;;11.40;74.90;;;;;;4999811;28;20033;-68
2022/10/10 08:00:41;;;;;;;2.53;1.98;;;11.50;74.90;;;;;;5031181;28;20061;-69
2022/10/10 08:03:07;;;;;;;2.35;2.00;;;11.60;75.10;;;;;;5011058;28;20042;-69
2022/10/10 08:05:33;;;;;;;3.00;2.20;;;11.80;75.30;;;;;;5008841;28;20040;-69
2022/10/10 08:07:59;;;;;;;4.75;2.20;;;11.90;75.30;;;;;;5012103;28;20022;-70
2022/10/10 08:10:27;;;;;;;4.70;2.17;;;12.00;75.00;;;;;;5009250;28;20408;-69
2022/10/10 08:12:53;;;;;;;3.30;1.73;;;12.10;74.70;;;;;;5020926;28;20488;-69
2022/10/10 08:15:19;;;;;;;2.15;1.77;;;12.20;74.20;;;;;;4992368;28;20037;-68
2022/10/10 08:17:44;;;;;;;3.05;2.15;;;12.40;73.80;;;;;;5008840;28;20046;-69
2022/10/10 08:20:10;;;;;;;3.88;1.88;;;12.50;73.70;;;;;;5006951;28;20369;-70
2022/10/10 08:22:36;;;;;;;3.50;2.28;;;12.60;73.20;;;;;;4997764;28;20038;-69
2022/10/10 08:25:01;;;;;;;4.68;2.10;;;12.80;73.40;;;;;;5010352;28;20033;-68
2022/10/10 08:27:27;;;;;;;2.78;2.03;;;12.80;73.20;;;;;;4990693;28;20030;-69
2022/10/10 08:29:53;;;;;;;3.08;1.83;;;12.90;73.10;;;;;;5006537;28;20104;-70
2022/10/10 08:32:18;;;;;;;3.28;1.83;;;12.90;73.10;;;;;;5017559;28;20037;-70
2022/10/10 08:34:44;;;;;;;3.17;2.45;;;13.00;73.40;;;;;;5016082;28;20026;-68
2022/10/10 08:37:10;;;;;;;3.13;2.42;;;13.00;73.70;;;;;;5023713;28;20454;-69
2022/10/10 08:39:35;;;;;;;9.02;1.98;;;13.00;73.60;;;;;;4991746;28;20064;-70
2022/10/10 08:42:02;;;;;;;3.20;2.03;;;13.10;73.60;;;;;;4976127;28;20147;-69
2022/10/10 08:44:50;;;;;;;2.88;1.92;;;13.20;74.20;;;;;;4999279;28;20024;-69
2022/10/10 08:47:47;;;;;;;4.93;2.05;;;13.20;73.60;;;;;;5001609;28;20057;-69
2022/10/10 08:50:29;;;;;;;7.43;2.03;;;13.20;73.60;;;;;;4992809;28;20044;-69
2022/10/10 08:53:26;;;;;;;3.10;1.52;;;13.30;73.40;;;;;;5007419;28;20041;-68
2022/10/10 08:55:54;;;;;;;3.55;1.90;;;13.40;73.20;;;;;;4995859;28;20049;-67
2022/10/10 08:58:36;;;;;;;2.45;1.88;;;13.50;73.10;;;;;;5008924;28;20504;-67
2022/10/10 09:01:15;;;;;;;4.33;2.63;;;13.70;72.90;;;;;;5009104;28;20029;-67
2022/10/10 09:04:13;;;;;;;3.38;1.80;;;13.90;72.50;;;;;;5009107;28;20025;-67
2022/10/10 09:06:51;;;;;;;4.38;1.77;;;14.10;72.10;;;;;;4998336;28;20433;-67
2022/10/10 09:09:27;;;;;;;7.25;2.42;;;14.30;72.00;;;;;;4990650;28;20075;-67
2022/10/10 09:12:14;;;;;;;2.33;1.58;;;14.40;71.90;;;;;;5001457;28;20049;-69
2022/10/10 09:15:10;;;;;;;4.72;1.92;;;14.50;71.60;;;;;;5006203;28;20389;-69
2022/10/10 09:18:09;;;;;;;2.55;1.88;;;14.60;71.40;;;;;;4991387;28;20069;-69
2022/10/10 09:20:53;;;;;;;2.47;1.45;;;14.70;71.10;;;;;;4999980;28;20477;-69
2022/10/10 09:23:29;;;;;;;2.88;1.73;;;15.00;70.80;;;;;;5008912;28;20112;-69
2022/10/10 09:26:04;;;;;;;3.75;2.05;;;15.10;70.50;;;;;;5013217;28;20044;-69
2022/10/10 09:28:36;;;;;;;6.68;1.52;;;15.10;70.30;;;;;;5010539;28;20101;-70
2022/10/10 09:31:05;;;;;;;2.50;2.05;;;15.20;70.10;;;;;;4991610;28;20084;-70
2022/10/10 09:33:34;;;;;;;4.82;2.03;;;15.20;69.90;;;;;;5008090;28;20080;-69
2022/10/10 09:36:03;;;;;;;2.28;1.95;;;15.20;69.90;;;;;;5008108;28;20384;-70
2022/10/10 09:38:58;;;;;;;2.42;1.83;;;15.20;70.10;;;;;;5007851;28;20104;-67
2022/10/10 09:41:43;;;;;;;3.00;2.08;;;15.20;70.30;;;;;;4995608;28;20056;-70
2022/10/10 09:44:13;;;;;;;3.42;2.20;;;15.30;70.30;;;;;;5006044;28;20018;-68
2022/10/10 09:46:38;;;;;;;4.50;2.08;;;15.50;70.10;;;;;;5009158;28;20022;-70
2022/10/10 09:49:05;;;;;;;3.30;2.25;;;15.70;69.70;;;;;;4990287;28;20362;-69
2022/10/10 09:51:31;;;;;;;3.72;2.03;;;15.80;69.30;;;;;;4990752;28;20374;-71
2022/10/10 09:53:58;;;;;;;1.92;1.00;;;15.90;69.00;;;;;;4991057;28;20497;-69
2022/10/10 09:56:26;;;;;;;2.72;1.50;;;16.00;68.70;;;;;;5009270;28;20513;-69
2022/10/10 09:58:54;;;;;;;2.40;2.00;;;16.10;68.60;;;;;;5008347;28;20508;-67
2022/10/10 10:01:29;;;;;;;2.03;1.60;;;16.10;68.30;;;;;;5008442;28;20034;-67
2022/10/10 10:04:15;;;;;;;3.10;1.77;;;16.10;68.40;;;;;;5009614;28;20022;-67
2022/10/10 10:06:48;;;;;;;2.60;1.60;;;16.20;68.50;;;;;;5002419;28;20022;-67
2022/10/10 10:09:20;;;;;;;3.53;2.03;;;16.20;68.70;;;;;;4994039;28;20020;-67
2022/10/10 10:11:47;;;;;;;;;;;16.30;68.60;;;;;;5004951;28;20024;-67
2022/10/10 10:14:29;;;;;;;3.50;2.03;;;16.40;68.40;;;;;;5012298;28;19968;-68
2022/10/10 10:17:08;;;;;;;3.15;2.22;;;16.30;68.20;;;;;;5004724;28;20046;-67
2022/10/10 10:19:37;;;;;;;1.88;1.63;;;16.40;68.20;;;;;;5000573;28;20220;-67
2022/10/10 10:22:03;;;;;;;3.00;1.88;;;16.50;68.10;;;;;;5011765;28;20025;-68
2022/10/10 10:24:38;;;;;;;3.53;1.70;;;16.70;67.90;;;;;;4994262;28;20300;-69
2022/10/10 10:27:18;;;;;;;1.77;1.45;;;16.80;67.50;;;;;;5005930;28;20397;-68
2022/10/10 10:29:51;;;;;;;6.05;1.63;;;16.80;67.00;;;;;;5011822;28;20403;-69
2022/10/10 10:32:51;;;;;;;4.75;2.05;;;16.80;67.40;;;;;;4997046;28;20362;-68
2022/10/10 10:35:22;;;;;;;4.10;1.98;;;16.70;67.60;;;;;;5010724;28;20460;-68
2022/10/10 10:38:08;;;;;;;4.30;2.13;;;16.70;67.80;;;;;;4982417;28;20504;-69
2022/10/10 10:40:53;;;;;;;2.63;1.85;;;16.70;67.80;;;;;;5006134;28;20417;-75
2022/10/10 10:43:18;;;;;;;3.47;2.15;;;16.60;67.90;;;;;;5011813;28;20026;-71
2022/10/10 10:46:15;;;;;;;3.13;1.83;;;16.60;68.00;;;;;;5010502;28;20057;-68
2022/10/10 10:48:42;;;;;;;5.07;1.63;;;16.70;68.00;;;;;;5006172;28;20489;-69
2022/10/10 10:51:25;;;;;;;9.27;2.05;;;16.70;68.10;;;;;;5003225;28;20026;-71
2022/10/10 10:53:58;;;;;;;4.63;1.88;;;16.70;68.00;;;;;;5005015;28;20060;-69
2022/10/10 10:56:36;;;;;;;2.47;1.40;;;16.70;68.20;;;;;;5011606;28;20500;-67
2022/10/10 10:59:07;;;;;;;1.70;1.42;;;16.80;68.30;;;;;;5001967;28;20481;-70
2022/10/10 11:01:51;;;;;;;2.50;1.53;;;16.90;68.30;;;;;;5003410;28;20037;-68
2022/10/10 11:04:33;;;;;;;6.38;1.85;;;17.20;68.10;;;;;;5007140;28;20042;-69
2022/10/10 11:07:14;;;;;;;6.75;1.45;;;17.60;67.20;;;;;;5000728;28;20066;-70
2022/10/10 11:10:05;;;;;;;2.17;1.33;;;18.00;66.60;;;;;;4989456;28;20117;-70
2022/10/10 11:12:59;;;;;;;3.20;1.80;;;18.20;66.00;;;;;;4997358;28;20060;-70
2022/10/10 11:16:03;;;;;;;4.20;1.92;;;18.60;65.70;;;;;;5003323;28;20041;-69
2022/10/10 11:18:49;;;;;;;2.35;1.88;;;19.00;64.80;;;;;;4997646;28;20060;-69
2022/10/10 11:21:22;;;;;;;4.40;1.95;;;19.40;63.10;;;;;;4996781;28;20024;-70
2022/10/10 11:24:18;;;;;;;1.55;1.15;;;19.40;63.00;;;;;;4990462;28;20442;-70
2022/10/10 11:26:49;;;;;;;4.10;1.65;;;19.30;63.10;;;;;;5002813;28;20024;-70
2022/10/10 11:29:23;;;;;;;5.37;2.03;;;19.30;63.20;;;;;;4991857;28;20029;-69
2022/10/10 11:31:48;;;;;;;2.60;1.65;;;19.30;62.80;;;;;;5003903;28;20022;-70
2022/10/10 11:34:48;;;;;;;1.27;1.05;;;19.40;63.10;;;;;;4997815;28;20543;-70
2022/10/10 11:37:23;;;;;;;3.05;1.92;;;19.80;62.80;;;;;;4947039;28;20502;-70
2022/10/10 11:39:55;;;;;;;3.40;2.00;;;20.00;62.20;;;;;;5002011;28;20014;-69
2022/10/10 11:42:25;;;;;;;1.70;1.35;;;20.20;62.10;;;;;;5001013;28;20037;-68
2022/10/10 11:44:58;;;;;;;1.42;1.08;;;20.40;61.90;;;;;;4997753;28;20027;-68
2022/10/10 11:47:38;;;;;;;1.42;1.33;;;20.40;61.50;;;;;;4990152;28;20018;-68
2022/10/10 11:50:31;;;;;;;2.38;1.25;;;20.20;61.60;;;;;;4995761;28;20030;-68
2022/10/10 11:53:10;;;;;;;2.10;1.73;;;20.00;61.80;;;;;;4989498;28;20121;-71
2022/10/10 11:56:18;;;;;;;1.70;1.50;;;19.80;62.20;;;;;;4985033;28;20109;-70
2022/10/10 11:58:59;;;;;;;2.15;1.30;;;19.50;62.50;;;;;;5006957;28;20101;-68
2022/10/10 12:01:35;;;;;;;2.85;1.70;;;19.30;63.10;;;;;;5000663;28;20135;-70
2022/10/10 12:04:00;;;;;;;13.38;1.77;;;19.10;63.40;;;;;;5004532;28;20448;-70
2022/10/10 12:06:39;;;;;;;2.75;1.60;;;19.00;63.80;;;;;;4989874;28;20112;-70
2022/10/10 12:09:15;;;;;;;5.20;2.53;;;18.90;64.00;;;;;;5009764;28;20045;-70
2022/10/10 12:11:59;;;;;;;2.45;1.40;;;19.00;64.50;;;;;;5003874;28;20030;-69
2022/10/10 12:14:30;;;;;;;4.18;2.10;;;19.30;64.10;;;;;;5004287;28;20474;-68
2022/10/10 12:16:57;;;;;;;2.75;1.25;;;19.60;63.60;;;;;;5005837;28;20048;-68
2022/10/10 12:19:26;;;;;;;3.42;1.42;;;19.90;63.10;;;;;;4996437;28;20041;-68
2022/10/10 12:21:54;;;;;;;4.28;1.60;;;20.20;62.50;;;;;;5005947;28;20018;-69
2022/10/10 12:24:20;;;;;;;3.35;1.35;;;20.40;61.90;;;;;;5001224;28;20041;-68
2022/10/10 12:26:55;;;;;;;1.33;1.20;;;20.40;61.60;;;;;;5006579;28;20477;-70
2022/10/10 12:29:40;;;;;;;1.45;1.35;;;20.40;61.50;;;;;;5013590;28;20041;-70
2022/10/10 12:32:12;;;;;;;1.98;1.60;;;20.30;61.90;;;;;;4992137;28;20029;-70
2022/10/10 12:34:44;;;;;;;3.30;1.73;;;20.20;62.30;;;;;;4992088;28;20112;-70
2022/10/10 12:37:34;;;;;;;4.78;2.58;;;20.00;62.80;;;;;;5004504;28;20036;-70
2022/10/10 12:40:06;;;;;;;1.67;1.10;;;19.80;63.30;;;;;;5010844;28;20109;-70
2022/10/10 12:42:36;;;;;;;1.33;1.20;;;19.60;63.80;;;;;;5015710;28;20461;-70
2022/10/10 12:45:02;;;;;;;1.67;1.45;;;19.40;64.10;;;;;;5009890;28;20076;-70
2022/10/10 12:47:38;;;;;;;7.60;1.83;;;19.20;64.70;;;;;;4991018;28;20695;-68
2022/10/10 12:50:24;;;;;;;1.92;1.50;;;19.10;65.20;;;;;;4985902;28;20022;-69
2022/10/10 12:53:03;;;;;;;2.85;1.40;;;18.90;65.70;;;;;;4989969;28;20022;-68
2022/10/10 12:55:40;;;;;;;2.00;1.50;;;18.80;66.20;;;;;;4981195;28;20618;-68
2022/10/10 12:58:14;;;;;;;2.25;1.98;;;18.60;66.50;;;;;;5000832;28;20353;-68
2022/10/10 13:00:44;;;;;;;1.67;1.25;;;18.50;66.80;;;;;;5007578;28;20072;-70
2022/10/10 13:03:16;;;;;;;1.90;1.40;;;18.40;67.20;;;;;;5005653;28;20021;-70
2022/10/10 13:05:42;;;;;;;2.15;1.63;;;18.30;67.40;;;;;;5006461;28;20043;-70
2022/10/10 13:08:19;;;;;;;1.70;1.10;;;18.30;67.80;;;;;;4986826;28;20033;-71
2022/10/10 13:11:23;;;;;;;1.95;1.40;;;18.20;68.00;;;;;;5008841;28;20065;-68
2022/10/10 13:13:57;;;;;;;3.88;1.40;;;18.20;68.90;;;;;;4959873;28;20093;-68